Kezdőlap
METAR-TAF:

METAR-TAF

Repülőterek :

Ungvári nemzetközi repülőtér

Ungvár, Ukrajna

földrajzi szélesség: 48-38-05N, földrajzi hosszúság: 022-15-53E, magasság: 117 m

Jelenlegi meteorológiai megfigyelések

A jelentés 1 órával és 1 perccel ezelõtt készült, 19:00 UTC
Különbözõ irányokból fújó szél 2 kt
Hőmérséklet 13°C
Páratartalom 72%
Légköri nyomás 1020 hPa
Látótávolság 10 km, vagy több

METAR: UKLU 201900Z VRB01MPS 9999 NSC 13/08 Q1020 NOSIG

Idő: 23:01 (20:01 UTC)

Előrejelzés

A jelentés 2 órával és 54 perccel ezelõtt készült, 17:07 UTC
Az előrejelzés 20-én 18 óra UTC és 21-én 03 óra UTC között érvényes
Észak-északnyugati szél 6 kt
Látótávolság 10 km, vagy több
20-én 18 óra UTC és 20-én 24 óra UTC között ideiglenes
Északi szél 14 kt
Látótávolság: 2000 m
Szakadozott felhőzet 2000 lábon
enyhe esõ, Párásság

TAF: UKLU 201707Z 2018/2103 33003MPS 9999 NSC TEMPO 2018/2024 36007MPS 2000 -RA BR BKN020

Meteorológiai megfigyelések és előrejelzések több, mint 4000 repülőtéren (METAR és TAF jelentéseket).

A térképen piros és sárga pontok jelzik az elérhető meteorológiai állomásokat.

Mozgassa az egeret a pont fölött, hogy megjelenjen az állomás neve.

Azután kattintson az időjárási megfigyelések és előrejelzések megtekintéséhez.

A térkép megváltoztatása: kattintson a fekete keresztel jelölt zöld gombra ráközelítéshez, a vonallal jelölt zöld gombra távolításhoz, vagy a zöld nyilakra a szomszédos térképek eléréséhez.


METAR-TAF: